createdAt,value
2022-12-01T00:06:31.039Z,-0.19
2022-12-01T00:16:55.285Z,-0.14
2022-12-01T00:27:18.599Z,-0.12
2022-12-01T00:37:44.554Z,-0.09
2022-12-01T00:48:10.363Z,-0.06
2022-12-01T00:58:36.010Z,-0.05
2022-12-01T01:09:01.452Z,-0.03
2022-12-01T01:19:16.783Z,0.00
2022-12-01T01:29:43.289Z,0.03
2022-12-01T01:40:09.058Z,0.04
2022-12-01T01:50:34.899Z,0.07
2022-12-01T02:00:56.961Z,0.10
2022-12-01T02:11:30.044Z,0.11
2022-12-01T02:22:09.193Z,0.13
2022-12-01T02:32:44.493Z,0.16
2022-12-01T02:43:17.315Z,0.16
2022-12-01T02:53:43.192Z,0.17
2022-12-01T03:04:34.198Z,0.20
2022-12-01T03:15:04.329Z,0.19
2022-12-01T03:25:32.098Z,0.20
2022-12-01T03:36:03.162Z,0.17
2022-12-01T03:46:41.267Z,0.13
2022-12-01T03:57:11.548Z,0.07
2022-12-01T04:07:37.326Z,0.04
2022-12-01T04:17:51.405Z,-0.04
2022-12-01T04:28:16.870Z,-0.08
2022-12-01T04:38:43.612Z,-0.13
2022-12-01T04:49:09.363Z,-0.12
2022-12-01T04:59:34.831Z,-0.10
2022-12-01T05:10:00.479Z,-0.09
2022-12-01T05:20:44.768Z,-0.10
2022-12-01T05:31:10.504Z,-0.15
2022-12-01T05:41:36.034Z,-0.16
2022-12-01T05:52:01.692Z,-0.14
2022-12-01T06:02:27.763Z,-0.10
2022-12-01T06:12:53.372Z,-0.12
2022-12-01T06:23:18.801Z,-0.13
2022-12-01T06:33:44.391Z,-0.15
2022-12-01T06:44:10.033Z,-0.13
2022-12-01T06:54:37.524Z,-0.11
2022-12-01T07:05:03.089Z,-0.07
2022-12-01T07:15:28.794Z,-0.02
2022-12-01T07:26:02.398Z,0.08
2022-12-01T07:36:27.922Z,0.20
2022-12-01T07:46:53.538Z,0.36
2022-12-01T07:57:20.444Z,0.52
2022-12-01T08:07:44.385Z,0.60
2022-12-01T08:18:09.882Z,0.55
2022-12-01T08:28:37.540Z,0.51
2022-12-01T08:39:02.982Z,0.51
2022-12-01T08:49:28.533Z,0.44
2022-12-01T08:59:53.970Z,0.46
2022-12-01T09:10:19.664Z,0.52
2022-12-01T09:20:45.888Z,0.79
2022-12-01T09:31:13.311Z,1.07
2022-12-01T09:41:42.017Z,1.54
2022-12-01T09:52:10.628Z,1.65
2022-12-01T10:02:41.258Z,1.50
2022-12-01T10:13:17.402Z,1.32
2022-12-01T10:24:02.314Z,1.19
2022-12-01T10:34:31.174Z,1.20
2022-12-01T10:44:58.292Z,1.21
2022-12-01T10:55:30.555Z,1.15
2022-12-01T11:05:58.448Z,1.14
2022-12-01T11:16:40.099Z,1.18
2022-12-01T11:27:13.820Z,1.12
2022-12-01T11:37:54.860Z,0.99
2022-12-01T11:48:34.479Z,0.85
2022-12-01T11:59:03.339Z,0.85
2022-12-01T12:09:45.230Z,0.85
2022-12-01T12:20:36.888Z,0.77
2022-12-01T12:30:58.924Z,0.68
2022-12-01T12:41:33.416Z,0.56
2022-12-01T12:52:08.293Z,0.49
2022-12-01T13:02:40.882Z,0.50
2022-12-01T13:13:24.438Z,0.44
2022-12-01T13:23:51.962Z,0.37
2022-12-01T13:34:25.996Z,0.34
2022-12-01T13:44:55.966Z,0.33
2022-12-01T13:55:28.638Z,0.35
2022-12-01T14:06:06.719Z,0.34
2022-12-01T14:16:50.030Z,0.31
2022-12-01T14:27:16.509Z,0.31
2022-12-01T14:37:48.935Z,0.26
2022-12-01T14:48:18.177Z,0.15
2022-12-01T14:58:53.693Z,0.15
2022-12-01T15:09:36.980Z,0.14
2022-12-01T15:20:03.195Z,0.15
2022-12-01T15:30:28.819Z,0.15
2022-12-01T15:51:42.112Z,0.07
2022-12-01T16:02:25.215Z,0.02
2022-12-01T16:12:50.924Z,-0.02
2022-12-01T16:23:25.358Z,-0.06
2022-12-01T16:34:00.340Z,-0.10
2022-12-01T16:44:29.290Z,-0.14
2022-12-01T16:54:54.985Z,-0.21
2022-12-01T17:05:21.091Z,-0.23
2022-12-01T17:15:49.042Z,-0.33
2022-12-01T17:26:17.099Z,-0.38
2022-12-01T17:36:42.854Z,-0.34
2022-12-01T17:47:08.499Z,-0.41
2022-12-01T17:57:34.228Z,-0.40
2022-12-01T18:07:59.995Z,-0.36
2022-12-01T18:18:25.575Z,-0.44
2022-12-01T18:28:56.078Z,-0.51
2022-12-01T18:39:21.718Z,-0.52
2022-12-01T18:49:47.251Z,-0.59
2022-12-01T19:00:15.280Z,-0.67
2022-12-01T19:10:40.936Z,-0.84
2022-12-01T19:21:08.387Z,-0.92
2022-12-01T19:31:34.342Z,-0.88
2022-12-01T19:42:00.233Z,-0.93
2022-12-01T19:52:25.912Z,-1.04
2022-12-01T20:02:51.662Z,-1.18
2022-12-01T20:13:17.351Z,-1.29
2022-12-01T20:23:43.712Z,-1.34
2022-12-01T20:34:12.429Z,-1.41
2022-12-01T20:44:39.983Z,-1.45
2022-12-01T20:55:06.491Z,-1.53
2022-12-01T21:05:33.167Z,-1.68
2022-12-01T21:16:04.863Z,-1.64
2022-12-01T21:26:32.580Z,-1.67
2022-12-01T21:37:02.047Z,-1.65
2022-12-01T21:47:30.643Z,-1.61
2022-12-01T21:57:56.778Z,-1.62
2022-12-01T22:08:27.572Z,-1.68
2022-12-01T22:18:55.761Z,-1.67
2022-12-01T22:29:29.497Z,-1.72
2022-12-01T22:39:57.430Z,-1.82
2022-12-01T22:50:27.822Z,-1.87
2022-12-01T23:00:57.784Z,-1.91
2022-12-01T23:11:23.781Z,-1.88
2022-12-01T23:21:49.553Z,-1.90
2022-12-01T23:32:15.612Z,-1.98
2022-12-01T23:42:41.505Z,-2.05
2022-12-01T23:53:07.110Z,-2.11
